Time;durP1;ratioP1;P1;durP2;ratioP2;P2;SDS_P1;SDS_P2;PMS_P1;PMS_P2;Temp;Humidity;BMP_temperature;BMP_pressure;BME280_temperature;BME280_humidity;BME280_pressure;Samples;Min_cycle;Max_cycle;Signal;HPM_P1;HPM_P2
2023/06/11 00:02:01;;;;;;;11.52;6.90;;;;;;;-143.21;76.00;71233.47;5070529;28;20283;-86
2023/06/11 00:04:34;;;;;;;8.77;6.68;;;;;;;-143.21;76.67;71247.34;5070377;28;20209;-85
2023/06/11 00:07:05;;;;;;;13.63;7.60;;;;;;;-143.21;77.44;71263.22;5070672;28;20288;-86
2023/06/11 00:09:32;;;;;;;10.05;7.85;;;;;;;-143.21;77.82;71277.09;5071125;28;20273;-86
2023/06/11 00:11:59;;;;;;;13.43;7.22;;;;;;;-143.21;77.68;71279.06;5069263;28;20194;-85
2023/06/11 00:14:26;;;;;;;9.32;7.20;;;;;;;-143.21;78.19;71281.06;5050787;28;20194;-85
2023/06/11 00:16:56;;;;;;;11.15;7.57;;;;;;;-143.21;78.29;71287.00;5050893;28;20704;-85
2023/06/11 00:19:28;;;;;;;13.25;7.85;;;;;;;-143.21;78.84;71292.94;5050567;28;20697;-83
2023/06/11 00:21:56;;;;;;;10.35;7.32;;;;;;;-143.21;78.63;71281.06;5052163;28;20233;-85
2023/06/11 00:24:23;;;;;;;12.38;7.65;;;;;;;-143.21;79.16;71283.03;5074810;28;20193;-85
2023/06/11 00:26:50;;;;;;;12.38;7.57;;;;;;;-143.21;78.89;71277.09;5074601;28;20193;-84
2023/06/11 00:29:17;;;;;;;12.82;8.52;;;;;;;-143.21;78.68;71281.06;5056044;28;20198;-84
2023/06/11 00:31:44;;;;;;;13.23;8.35;;;;;;;-143.21;78.69;71283.03;5053951;28;20226;-85
2023/06/11 00:34:12;;;;;;;8.75;7.32;;;;;;;-143.21;78.67;71290.97;5054197;28;20198;-85
2023/06/11 00:36:40;;;;;;;9.75;7.78;;;;;;;-143.21;78.34;71281.06;5053726;28;20198;-85
2023/06/11 00:39:07;;;;;;;12.48;7.72;;;;;;;-143.21;78.18;71277.09;5054095;28;20190;-85
2023/06/11 00:41:34;;;;;;;9.05;7.18;;;;;;;-143.21;77.84;71271.13;5053644;28;20715;-84
2023/06/11 00:44:02;;;;;;;8.40;7.00;;;;;;;-143.21;78.16;71275.09;5053616;28;20198;-84
2023/06/11 00:46:31;;;;;;;11.23;7.20;;;;;;;-143.21;78.38;71275.09;5053797;28;20277;-85
2023/06/11 00:49:00;;;;;;;8.95;7.00;;;;;;;-143.21;78.08;71288.97;5053644;28;20201;-85
2023/06/11 00:51:28;;;;;;;8.50;6.68;;;;;;;-143.21;78.58;71296.91;5053604;28;20198;-85
2023/06/11 00:53:55;;;;;;;10.30;7.55;;;;;;;-143.21;78.55;71304.84;5072357;28;20205;-85
2023/06/11 00:56:22;;;;;;;9.10;6.97;;;;;;;-143.21;78.56;71316.75;5073153;28;20194;-85
2023/06/11 00:58:50;;;;;;;10.52;7.10;;;;;;;-143.21;78.82;71312.78;5073545;28;20596;-85
2023/06/11 01:01:25;;;;;;;9.68;7.40;;;;;;;-143.21;78.79;71312.78;5073311;28;20283;-84
2023/06/11 01:03:56;;;;;;;14.30;7.15;;;;;;;-143.21;78.85;71312.78;5073477;28;20177;-85
2023/06/11 01:06:28;;;;;;;10.02;8.00;;;;;;;-143.21;78.17;71316.75;5073422;28;20193;-85
2023/06/11 01:08:58;;;;;;;11.10;8.15;;;;;;;-143.21;78.38;71312.78;5073531;28;20259;-84
2023/06/11 01:11:27;;;;;;;11.68;8.07;;;;;;;-143.21;78.84;71320.69;5073404;28;20276;-85
2023/06/11 01:13:54;;;;;;;12.25;7.85;;;;;;;-143.21;79.04;71320.69;5073230;28;20197;-84
2023/06/11 01:16:29;;;;;;;10.98;8.38;;;;;;;-143.21;78.77;71314.75;5073797;28;20286;-85
2023/06/11 01:19:03;;;;;;;11.65;8.70;;;;;;;-143.21;78.66;71324.66;5072822;28;20193;-84
2023/06/11 01:21:40;;;;;;;13.23;7.55;;;;;;;-143.21;79.21;71326.66;5072043;28;20217;-84
2023/06/11 01:24:18;;;;;;;12.88;8.10;;;;;;;-143.21;79.44;71328.63;5072690;28;20228;-84
2023/06/11 01:27:04;;;;;;;10.27;7.93;;;;;;;-143.21;79.87;71332.59;5072814;28;20178;-86
2023/06/11 01:29:37;;;;;;;12.25;8.13;;;;;;;-143.21;79.70;71328.63;5073156;28;20193;-86
2023/06/11 01:32:05;;;;;;;10.57;7.88;;;;;;;-143.21;79.54;71326.66;5072601;28;20283;-85
2023/06/11 01:34:32;;;;;;;9.57;7.82;;;;;;;-143.21;79.61;71322.69;5071619;28;20612;-85
2023/06/11 01:36:59;;;;;;;11.95;7.43;;;;;;;-143.21;79.29;71324.66;5072935;28;20259;-86
2023/06/11 01:39:26;;;;;;;11.35;8.25;;;;;;;-143.21;79.79;71336.56;5073174;28;20276;-86
2023/06/11 01:41:54;;;;;;;10.75;7.78;;;;;;;-143.21;80.16;71342.50;5072670;28;20217;-86
2023/06/11 01:44:22;;;;;;;12.65;7.78;;;;;;;-143.21;80.52;71348.47;5075080;28;20263;-85
2023/06/11 01:46:50;;;;;;;10.23;7.85;;;;;;;-143.21;81.20;71350.44;5072984;28;20193;-84
2023/06/11 01:49:17;;;;;;;10.65;7.90;;;;;;;-143.21;81.44;71352.44;5073295;28;20627;-84
2023/06/11 01:51:43;;;;;;;14.82;8.05;;;;;;;-143.21;81.85;71346.47;5072373;28;20189;-84
2023/06/11 01:54:10;;;;;;;14.68;8.13;;;;;;;-143.21;81.60;71348.47;5052695;28;20194;-85
2023/06/11 01:56:37;;;;;;;19.77;12.18;;;;;;;-143.21;81.21;71336.56;5052536;28;20194;-85
2023/06/11 01:59:04;;;;;;;25.83;17.83;;;;;;;-143.21;81.03;71338.53;5052952;28;20198;-85
2023/06/11 02:01:32;;;;;;;21.90;15.48;;;;;;;-143.21;80.94;71332.59;5052307;28;20725;-86
2023/06/11 02:04:00;;;;;;;26.27;19.77;;;;;;;-143.21;80.47;71322.69;5052722;28;20198;-86
2023/06/11 02:06:28;;;;;;;27.92;18.42;;;;;;;-143.21;80.48;71318.72;5052335;28;20661;-86
2023/06/11 02:08:55;;;;;;;18.48;13.23;;;;;;;-143.21;79.82;71312.78;5052352;28;20221;-84
2023/06/11 02:11:22;;;;;;;16.35;10.75;;;;;;;-143.21;79.13;71320.69;5051902;28;20640;-84
2023/06/11 02:13:48;;;;;;;14.65;8.82;;;;;;;-143.21;78.98;71324.66;5052050;28;20632;-84
2023/06/11 02:16:15;;;;;;;13.73;7.70;;;;;;;-143.21;78.58;71324.66;5052194;28;20252;-84
2023/06/11 02:18:42;;;;;;;15.85;8.43;;;;;;;-143.21;78.11;71318.72;5052142;28;20194;-84
2023/06/11 02:21:10;;;;;;;10.65;8.05;;;;;;;-143.21;78.13;71318.72;5051800;28;20606;-84
2023/06/11 02:23:37;;;;;;;9.55;7.30;;;;;;;-143.21;78.09;71312.78;5051940;28;20221;-84
2023/06/11 02:26:04;;;;;;;9.25;7.03;;;;;;;-143.21;77.50;71308.81;5052037;28;20194;-84
2023/06/11 02:28:31;;;;;;;8.20;6.38;;;;;;;-143.21;76.91;71308.81;5052054;28;20230;-84
2023/06/11 02:30:57;;;;;;;12.45;6.80;;;;;;;-143.21;77.06;71312.78;5052056;28;20199;-84
2023/06/11 02:33:24;;;;;;;10.75;6.90;;;;;;;-143.21;77.11;71306.81;5051421;28;20205;-85
2023/06/11 02:35:51;;;;;;;11.13;6.82;;;;;;;-143.21;76.77;71306.81;5051116;28;20200;-85
2023/06/11 02:38:19;;;;;;;7.80;6.28;;;;;;;-143.21;77.01;71308.81;5051230;28;20194;-82
2023/06/11 02:40:48;;;;;;;8.48;5.97;;;;;;;-143.21;76.62;71306.81;5051868;28;20259;-83
2023/06/11 02:43:15;;;;;;;7.53;6.20;;;;;;;-143.21;76.76;71302.84;5051735;28;20241;-82
2023/06/11 02:45:42;;;;;;;14.15;6.80;;;;;;;-143.21;76.80;71300.88;5051865;28;20194;-82
2023/06/11 02:48:09;;;;;;;10.90;6.78;;;;;;;-143.21;77.23;71300.88;5051921;28;20194;-82
2023/06/11 02:50:36;;;;;;;11.95;7.05;;;;;;;-143.21;77.29;71300.88;5051482;28;20216;-83
2023/06/11 02:53:02;;;;;;;10.48;6.80;;;;;;;-143.21;77.11;71296.91;5062737;28;20193;-82
2023/06/11 02:55:31;;;;;;;7.75;6.45;;;;;;;-143.21;77.36;71306.81;5071701;28;20200;-83
2023/06/11 02:57:57;;;;;;;8.93;6.90;;;;;;;-143.21;77.45;71310.78;5071501;28;20194;-83
2023/06/11 03:00:25;;;;;;;8.25;6.75;;;;;;;-143.21;77.35;71306.81;5071740;28;20190;-82
2023/06/11 03:02:52;;;;;;;13.43;6.78;;;;;;;-143.21;77.50;71310.78;5071583;28;20306;-85
2023/06/11 03:05:19;;;;;;;12.77;6.72;;;;;;;-143.21;77.61;71310.78;5077425;28;20197;-85
2023/06/11 03:07:46;;;;;;;9.93;7.10;;;;;;;-143.21;77.19;71312.78;5082076;28;20197;-84
2023/06/11 03:10:13;;;;;;;9.82;7.10;;;;;;;-143.21;76.95;71316.75;5077680;28;20218;-86
2023/06/11 03:12:41;;;;;;;11.77;6.50;;;;;;;-143.21;77.11;71310.78;5084752;28;20189;-86
2023/06/11 03:15:09;;;;;;;13.13;6.63;;;;;;;-143.21;77.18;71316.75;5077004;28;20276;-86
2023/06/11 03:17:35;;;;;;;9.00;6.60;;;;;;;-143.21;77.14;71312.78;5073412;28;20204;-86
2023/06/11 03:20:03;;;;;;;8.02;6.00;;;;;;;-143.21;76.57;71308.81;5073745;28;20280;-85
2023/06/11 03:22:30;;;;;;;8.13;6.20;;;;;;;-143.21;76.58;71308.81;5064503;28;20352;-84
2023/06/11 03:24:56;;;;;;;7.65;6.15;;;;;;;-143.21;76.86;71312.78;5051128;28;20252;-84
2023/06/11 03:27:23;;;;;;;11.30;6.32;;;;;;;-143.21;76.36;71314.75;5051174;28;20198;-85
2023/06/11 03:29:51;;;;;;;12.10;6.53;;;;;;;-143.21;76.22;71314.75;5051181;28;20190;-84
2023/06/11 03:32:19;;;;;;;9.88;6.63;;;;;;;-143.21;75.81;71312.78;5050876;28;20233;-85
2023/06/11 03:34:45;;;;;;;7.75;5.95;;;;;;;-143.21;75.48;71308.81;5051201;28;20198;-85
2023/06/11 03:37:12;;;;;;;13.13;6.43;;;;;;;-143.21;75.64;71318.72;5051561;28;20202;-81
2023/06/11 03:39:39;;;;;;;9.13;6.30;;;;;;;-143.21;75.70;71332.59;5050916;28;20198;-80
2023/06/11 03:42:06;;;;;;;11.40;7.07;;;;;;;-143.21;75.89;71328.63;5050585;28;20586;-81
2023/06/11 03:44:33;;;;;;;8.93;6.57;;;;;;;-143.21;76.22;71326.66;5050534;28;20759;-80
2023/06/11 03:47:01;;;;;;;16.13;6.53;;;;;;;-143.21;76.40;71332.59;5050509;28;20194;-81
2023/06/11 03:49:28;;;;;;;8.48;6.20;;;;;;;-143.21;76.38;71330.63;5050868;28;20293;-81
2023/06/11 03:51:56;;;;;;;10.43;6.75;;;;;;;-143.21;76.71;71332.59;5052495;28;20202;-81
2023/06/11 03:54:23;;;;;;;12.50;6.85;;;;;;;-143.21;76.87;71330.63;5070063;28;20202;-80
2023/06/11 03:56:50;;;;;;;9.93;6.57;;;;;;;-143.21;76.61;71324.66;5070383;28;20255;-80
2023/06/11 03:59:17;;;;;;;11.30;6.90;;;;;;;-143.21;76.90;71322.69;5073226;28;20712;-80
2023/06/11 04:01:44;;;;;;;13.48;7.28;;;;;;;-143.21;76.27;71322.69;5074747;28;20189;-81
2023/06/11 04:04:12;;;;;;;13.63;7.40;;;;;;;-143.21;75.98;71312.78;5074318;28;20696;-82
2023/06/11 04:06:40;;;;;;;8.88;6.45;;;;;;;-143.21;75.97;71318.72;5074833;28;20201;-82
2023/06/11 04:09:07;;;;;;;12.15;6.05;;;;;;;-143.21;75.85;71326.66;5074577;28;20189;-81
2023/06/11 04:11:34;;;;;;;10.45;6.65;;;;;;;-143.21;76.11;71324.66;5058982;28;20221;-81
2023/06/11 04:14:01;;;;;;;9.07;6.32;;;;;;;-143.21;75.63;71316.75;5054635;28;20197;-83
2023/06/11 04:16:28;;;;;;;9.77;6.55;;;;;;;-143.21;75.39;71322.69;5054300;28;20198;-83
2023/06/11 04:18:55;;;;;;;10.02;6.22;;;;;;;-143.21;74.95;71318.72;5054523;28;20202;-84
2023/06/11 04:21:23;;;;;;;9.52;6.82;;;;;;;-143.21;74.99;71310.78;5054195;28;20256;-80
2023/06/11 04:23:50;;;;;;;11.02;6.07;;;;;;;-143.21;75.01;71306.81;5071739;28;20354;-81
2023/06/11 04:26:19;;;;;;;10.73;6.45;;;;;;;-143.21;74.66;71300.88;5073843;28;20189;-81
2023/06/11 04:28:48;;;;;;;10.70;6.88;;;;;;;-143.21;74.49;71300.88;5073666;28;20296;-82
2023/06/11 04:31:15;;;;;;;11.73;6.43;;;;;;;-143.21;74.77;71300.88;5073922;28;20580;-81
2023/06/11 04:33:42;;;;;;;15.32;6.85;;;;;;;-143.21;75.09;71310.78;5073731;28;20182;-82
2023/06/11 04:36:09;;;;;;;17.67;6.68;;;;;;;-143.21;75.04;71310.78;5073705;28;20751;-82
2023/06/11 04:38:44;;;;;;;8.48;6.57;;;;;;;-143.21;75.20;71304.84;5073455;28;20201;-82
2023/06/11 04:41:11;;;;;;;10.32;7.25;;;;;;;-143.21;75.22;71294.94;5073440;28;20235;-81
2023/06/11 04:43:39;;;;;;;13.23;7.55;;;;;;;-143.21;74.85;71285.03;5073276;28;20304;-81
2023/06/11 04:46:06;;;;;;;12.98;7.57;;;;;;;-143.21;75.09;71275.09;5073350;28;20197;-80
2023/06/11 04:48:59;;;;;;;13.45;7.00;;;;;;;-143.21;75.06;71275.09;5057002;28;20267;-84
2023/06/11 04:51:34;;;;;;;10.60;6.85;;;;;;;-143.21;74.67;71261.22;5049885;28;20201;-81
2023/06/11 04:54:21;;;;;;;9.77;7.00;;;;;;;-143.21;74.62;71259.25;5052631;28;20205;-86
2023/06/11 04:56:48;;;;;;;8.52;6.70;;;;;;;-143.21;73.57;71277.09;5054073;28;20202;-85
2023/06/11 04:59:19;;;;;;;16.02;6.60;;;;;;;-143.21;73.72;71275.09;5053295;28;20661;-86
2023/06/11 05:01:48;;;;;;;13.10;6.72;;;;;;;-143.21;73.75;71275.09;5053493;28;20567;-89
2023/06/11 05:04:28;;;;;;;12.55;6.82;;;;;;;-143.21;73.32;71265.19;5052902;28;20210;-90
2023/06/11 05:07:00;;;;;;;11.32;6.70;;;;;;;-143.21;72.21;71275.09;5054585;28;20217;-89
2023/06/11 05:09:30;;;;;;;17.80;6.63;;;;;;;-143.21;72.81;71277.09;5053357;28;20198;-89
2023/06/11 05:11:59;;;;;;;10.80;6.40;;;;;;;-143.21;72.88;71267.19;5052935;28;20590;-83
2023/06/11 05:14:26;;;;;;;13.60;6.28;;;;;;;-143.21;72.37;71261.22;5052878;28;20212;-85
2023/06/11 05:16:53;;;;;;;12.45;6.53;;;;;;;-143.21;71.73;71257.25;5052894;28;20269;-85
2023/06/11 05:19:20;;;;;;;11.50;6.68;;;;;;;-143.21;72.17;71253.28;5053016;28;20256;-84
2023/06/11 05:21:49;;;;;;;12.45;6.40;;;;;;;-143.21;71.71;71249.34;5053952;28;20197;-85
2023/06/11 05:24:19;;;;;;;11.05;6.57;;;;;;;-143.21;71.73;71253.28;5072787;28;20221;-84
2023/06/11 05:26:48;;;;;;;14.02;6.60;;;;;;;-143.21;71.49;71251.31;5073548;28;20637;-85
2023/06/11 05:29:14;;;;;;;9.38;5.95;;;;;;;-143.21;71.24;71257.25;5073312;28;20193;-86
2023/06/11 05:31:42;;;;;;;11.00;6.10;;;;;;;-143.21;71.76;71275.09;5072679;28;20719;-85
2023/06/11 05:34:08;;;;;;;14.85;6.60;;;;;;;-143.21;71.57;71281.06;5072919;28;20189;-85
2023/06/11 05:36:36;;;;;;;10.55;6.43;;;;;;;-143.21;72.01;71279.06;5073024;28;20205;-87
2023/06/11 05:39:03;;;;;;;12.77;6.80;;;;;;;-143.21;71.89;71263.22;5072892;28;20189;-85
2023/06/11 05:41:30;;;;;;;9.32;6.18;;;;;;;-143.21;71.15;71265.19;5060465;28;20189;-84
2023/06/11 05:43:58;;;;;;;9.88;5.93;;;;;;;-143.21;71.14;71255.28;5052304;28;20983;-86
2023/06/11 05:46:27;;;;;;;12.95;5.95;;;;;;;-143.21;69.56;71251.31;5052417;28;20209;-86
2023/06/11 05:48:55;;;;;;;9.45;5.43;;;;;;;-143.21;68.31;71245.38;5052533;28;20293;-86
2023/06/11 05:51:22;;;;;;;8.93;5.60;;;;;;;-143.21;68.84;71247.34;5051958;28;20282;-86
2023/06/11 05:53:51;;;;;;;6.80;5.20;;;;;;;-143.21;68.65;71245.38;5052143;28;20745;-85
2023/06/11 05:56:21;;;;;;;10.00;5.68;;;;;;;-143.21;68.60;71245.38;5052117;28;20300;-85
2023/06/11 05:58:48;;;;;;;14.70;5.88;;;;;;;-143.21;68.87;71231.50;5052032;28;20661;-85
2023/06/11 06:01:17;;;;;;;10.38;5.88;;;;;;;-143.21;68.82;71221.56;5052244;28;20205;-84
2023/06/11 06:03:44;;;;;;;11.68;5.82;;;;;;;-143.21;68.45;71219.59;5052889;28;20218;-84
2023/06/11 06:06:11;;;;;;;7.47;5.65;;;;;;;-143.21;68.88;71221.56;5053092;28;20221;-85
2023/06/11 06:08:37;;;;;;;11.00;6.22;;;;;;;-143.21;68.84;71227.53;5055828;28;20622;-86
2023/06/11 06:11:04;;;;;;;7.03;5.57;;;;;;;-143.21;68.81;71211.66;5061427;28;20257;-84
2023/06/11 06:13:31;;;;;;;8.23;5.93;;;;;;;-143.21;68.90;71195.81;5053792;28;20186;-85
2023/06/11 06:15:58;;;;;;;8.73;5.60;;;;;;;-143.21;68.88;71195.81;5063325;28;20194;-85
2023/06/11 06:18:27;;;;;;;11.00;5.78;;;;;;;-143.21;68.82;71183.91;5059321;28;20190;-86
2023/06/11 06:20:54;;;;;;;8.20;5.90;;;;;;;-143.21;67.87;71174.00;5056982;28;20201;-86
2023/06/11 06:23:21;;;;;;;9.68;6.07;;;;;;;-143.21;67.48;71162.09;5040773;28;20284;-87
2023/06/11 06:25:48;;;;;;;7.80;5.90;;;;;;;-143.21;67.06;71150.22;5032402;28;20558;-85
2023/06/11 06:28:17;;;;;;;10.65;6.47;;;;;;;-143.21;66.58;71132.38;5032614;28;20195;-86
2023/06/11 06:30:44;;;;;;;8.93;5.90;;;;;;;-143.21;66.35;71126.41;5032496;28;20199;-84
2023/06/11 06:33:11;;;;;;;7.07;5.80;;;;;;;-143.21;66.26;71118.50;5049161;28;20280;-84
2023/06/11 06:35:40;;;;;;;7.18;5.57;;;;;;;-143.21;66.06;71108.56;5051927;28;20548;-83
2023/06/11 06:38:06;;;;;;;7.22;6.00;;;;;;;-143.21;65.82;71104.59;5051926;28;20259;-83
2023/06/11 06:40:33;;;;;;;9.52;6.15;;;;;;;-143.21;65.60;71110.56;5051827;28;20194;-85
2023/06/11 06:43:00;;;;;;;10.52;6.32;;;;;;;-143.21;65.91;71108.56;5051406;28;20224;-86
2023/06/11 06:45:27;;;;;;;14.15;6.22;;;;;;;-143.21;65.78;71094.69;5051481;28;20657;-86
2023/06/11 06:47:54;;;;;;;7.45;5.60;;;;;;;-143.21;66.46;71090.72;5051695;28;20224;-86
2023/06/11 06:50:21;;;;;;;8.48;5.63;;;;;;;-143.21;66.32;71080.81;5051507;28;20681;-84
2023/06/11 06:52:49;;;;;;;6.47;5.60;;;;;;;-143.21;65.12;71076.84;5060776;28;20213;-83
2023/06/11 06:55:16;;;;;;;8.45;5.70;;;;;;;-143.21;64.86;71062.97;5071243;28;20208;-83
2023/06/11 06:57:43;;;;;;;7.63;6.00;;;;;;;-143.21;64.44;71051.09;5071110;28;20579;-81
2023/06/11 07:00:11;;;;;;;9.57;6.22;;;;;;;-143.21;64.69;71039.19;5071429;28;20193;-83
2023/06/11 07:02:37;;;;;;;9.20;6.00;;;;;;;-143.21;64.67;71027.28;5071172;28;20203;-82
2023/06/11 07:05:05;;;;;;;7.82;6.13;;;;;;;-143.21;64.09;71021.34;5071196;28;20228;-82
2023/06/11 07:07:32;;;;;;;11.68;6.05;;;;;;;-143.21;64.04;71031.25;5070981;28;20613;-82
2023/06/11 07:10:00;;;;;;;7.70;6.35;;;;;;;-143.21;64.59;71025.31;5071243;28;20632;-83
2023/06/11 07:12:27;;;;;;;7.97;6.25;;;;;;;-143.21;64.71;71005.50;5070913;28;20216;-84
2023/06/11 07:14:54;;;;;;;9.13;6.47;;;;;;;-143.21;64.70;70997.56;5071222;28;20197;-83
2023/06/11 07:17:23;;;;;;;13.40;6.13;;;;;;;-143.21;63.69;70985.66;5070828;28;20201;-76
2023/06/11 07:19:50;;;;;;;9.32;6.57;;;;;;;-143.21;63.16;70969.81;5070037;28;20198;-76
2023/06/11 07:22:17;;;;;;;8.23;6.53;;;;;;;-143.21;63.38;70963.84;5070064;28;20209;-75
2023/06/11 07:24:47;;;;;;;14.77;7.35;;;;;;;-143.21;62.84;70949.97;5070006;28;20221;-76
2023/06/11 07:27:15;;;;;;;8.77;7.05;;;;;;;-143.21;62.87;70932.13;5069673;28;20201;-76
2023/06/11 07:29:42;;;;;;;11.80;6.63;;;;;;;-143.21;62.46;70920.25;5069924;28;20205;-76
2023/06/11 07:32:09;;;;;;;8.55;6.88;;;;;;;-143.21;60.88;70900.41;5069445;28;20777;-76
2023/06/11 07:34:36;;;;;;;7.03;6.20;;;;;;;-143.21;60.10;70894.47;5073408;28;20196;-76
2023/06/11 07:37:03;;;;;;;10.93;6.63;;;;;;;-143.21;60.55;70880.59;5073853;28;20212;-76
2023/06/11 07:39:30;;;;;;;11.50;7.05;;;;;;;-143.21;59.58;70880.59;5073839;28;20193;-76
2023/06/11 07:41:57;;;;;;;9.45;6.85;;;;;;;-143.21;59.25;70894.47;5073647;28;20974;-76
2023/06/11 07:44:25;;;;;;;10.70;7.00;;;;;;;-143.21;59.14;70892.50;5073454;28;20229;-76
2023/06/11 07:46:52;;;;;;;12.43;6.82;;;;;;;-143.21;59.13;70894.47;5073333;28;20197;-75
2023/06/11 07:49:19;;;;;;;9.32;7.32;;;;;;;-143.21;59.34;70892.50;5074058;28;20194;-77
2023/06/11 07:51:46;;;;;;;11.40;7.10;;;;;;;-143.21;59.71;70880.59;5073294;28;20197;-77
2023/06/11 07:54:12;;;;;;;8.70;7.28;;;;;;;-143.21;59.50;70874.66;5073521;28;20251;-77
2023/06/11 07:56:39;;;;;;;10.90;7.18;;;;;;;-143.21;58.55;70860.78;5073580;28;20714;-77
2023/06/11 07:59:06;;;;;;;8.38;6.70;;;;;;;-143.21;58.14;70862.75;5073392;28;20201;-77
2023/06/11 08:01:36;;;;;;;8.68;6.45;;;;;;;-143.21;57.92;70868.72;5073769;28;20193;-77
2023/06/11 08:04:02;;;;;;;9.90;7.38;;;;;;;-143.21;58.53;70868.72;5067967;28;20228;-77
2023/06/11 08:06:29;;;;;;;9.88;7.00;;;;;;;-143.21;58.55;70856.81;5053224;28;20232;-77
2023/06/11 08:08:56;;;;;;;9.52;6.18;;;;;;;-143.21;57.42;70840.97;5053604;28;20259;-77
2023/06/11 08:11:23;;;;;;;14.68;7.20;;;;;;;-143.21;57.64;70835.00;5053217;28;20248;-77
2023/06/11 08:13:50;;;;;;;16.00;7.10;;;;;;;-143.21;57.03;70823.13;5052641;28;20194;-77
2023/06/11 08:16:18;;;;;;;10.60;7.25;;;;;;;-143.21;57.21;70813.19;5053355;28;20308;-77
2023/06/11 08:18:52;;;;;;;8.82;6.60;;;;;;;-143.21;57.34;70809.25;5053360;28;20293;-77
2023/06/11 08:21:19;;;;;;;8.95;7.35;;;;;;;-143.21;56.77;70801.31;5053120;28;20220;-76
2023/06/11 08:23:46;;;;;;;10.27;7.50;;;;;;;-143.21;57.18;70795.38;5070220;28;20683;-77
2023/06/11 08:26:14;;;;;;;9.68;7.28;;;;;;;-143.21;57.11;70783.47;5073150;28;20197;-77
2023/06/11 08:28:41;;;;;;;8.80;7.13;;;;;;;-143.21;56.45;70781.50;5073032;28;20255;-77
2023/06/11 08:31:08;;;;;;;13.05;6.78;;;;;;;-143.21;56.29;70779.50;5073363;28;20205;-77
2023/06/11 08:33:34;;;;;;;10.15;7.82;;;;;;;-143.21;56.85;70763.66;5073477;28;20192;-77
2023/06/11 08:36:03;;;;;;;13.32;6.72;;;;;;;-143.21;56.32;70745.81;5072582;28;20201;-78
2023/06/11 08:38:30;;;;;;;13.20;6.30;;;;;;;-143.21;55.66;70743.81;5073142;28;20201;-77
2023/06/11 08:40:57;;;;;;;10.43;7.20;;;;;;;-143.21;55.54;70727.97;5072952;28;20340;-76
2023/06/11 08:43:24;;;;;;;12.18;6.70;;;;;;;-143.21;54.56;70714.09;5072105;28;20194;-75
2023/06/11 08:45:51;;;;;;;12.02;6.70;;;;;;;-143.21;54.25;70700.22;5072662;28;20221;-76
2023/06/11 08:48:21;;;;;;;12.60;5.90;;;;;;;-143.21;53.20;70676.44;5072534;28;20622;-76
2023/06/11 08:50:49;;;;;;;6.82;6.00;;;;;;;-143.21;53.31;70660.56;5072063;28;20255;-76
2023/06/11 08:53:17;;;;;;;7.63;6.18;;;;;;;-143.21;52.46;70646.69;5072497;28;20208;-76
2023/06/11 08:55:45;;;;;;;9.98;6.35;;;;;;;-143.21;51.81;70638.75;5073125;28;20288;-78
2023/06/11 08:58:13;;;;;;;10.15;6.07;;;;;;;-143.21;52.08;70636.78;5072018;28;20254;-76
2023/06/11 09:00:40;;;;;;;11.73;6.13;;;;;;;-143.21;52.20;70630.84;5072604;28;20197;-75
2023/06/11 09:03:08;;;;;;;9.23;5.95;;;;;;;-143.21;51.53;70626.88;5072295;28;20711;-75
2023/06/11 09:05:35;;;;;;;9.95;5.93;;;;;;;-143.21;51.76;70614.97;5071735;28;20222;-76
2023/06/11 09:08:07;;;;;;;9.15;6.15;;;;;;;-143.21;51.43;70599.13;5066418;28;20205;-75
2023/06/11 09:10:35;;;;;;;29.65;5.75;;;;;;;-143.21;51.17;70593.19;5052493;28;20283;-76
2023/06/11 09:13:02;;;;;;;8.20;5.80;;;;;;;-143.21;50.99;70577.31;5051466;28;20657;-75
2023/06/11 09:15:29;;;;;;;12.30;5.85;;;;;;;-143.21;50.17;70573.34;5051989;28;20186;-76
2023/06/11 09:17:56;;;;;;;7.53;5.55;;;;;;;-143.21;48.60;70587.22;5051693;28;20204;-76
2023/06/11 09:20:23;;;;;;;8.63;6.68;;;;;;;-143.21;49.40;70611.00;5051798;28;20866;-77
2023/06/11 09:22:51;;;;;;;9.90;6.03;;;;;;;-143.21;49.87;70599.13;5061965;28;20202;-76
2023/06/11 09:25:18;;;;;;;9.68;6.07;;;;;;;-143.21;48.76;70591.19;5072405;28;20217;-77
2023/06/11 09:27:47;;;;;;;10.70;6.13;;;;;;;-143.21;49.36;70593.19;5072189;28;20196;-77
2023/06/11 09:30:17;;;;;;;9.32;6.00;;;;;;;-143.21;48.90;70573.34;5071849;28;20198;-78
2023/06/11 09:32:45;;;;;;;12.55;5.80;;;;;;;-143.21;49.03;70565.44;5071622;28;20678;-76
2023/06/11 09:35:13;;;;;;;9.45;5.47;;;;;;;-143.21;49.72;70551.56;5071680;28;20193;-76
2023/06/11 09:37:43;;;;;;;10.65;6.53;;;;;;;-143.21;49.60;70541.63;5071941;28;20268;-78
2023/06/11 09:40:12;;;;;;;13.98;6.30;;;;;;;-143.21;48.94;70529.75;5071636;28;20197;-75
2023/06/11 09:42:40;;;;;;;9.75;6.80;;;;;;;-143.21;48.21;70525.78;5072335;28;20197;-80
2023/06/11 09:45:17;;;;;;;10.50;6.45;;;;;;;-143.21;49.31;70513.88;5072801;28;20224;-82
2023/06/11 09:47:46;;;;;;;9.48;5.90;;;;;;;-143.21;47.11;70494.06;5072166;28;20243;-81
2023/06/11 09:50:13;;;;;;;10.43;6.32;;;;;;;-143.21;46.17;70484.16;5072680;28;20193;-83
2023/06/11 09:52:41;;;;;;;9.13;6.25;;;;;;;-143.21;46.53;70474.25;5063661;28;20289;-83
2023/06/11 09:55:09;;;;;;;8.60;5.82;;;;;;;-143.21;44.10;70464.34;5051839;28;20186;-83
2023/06/11 09:57:38;;;;;;;4.55;3.63;;;;;;;-143.21;52.97;70444.53;5051800;28;20202;-81
2023/06/11 10:00:09;;;;;;;5.82;4.63;;;;;;;-143.21;53.10;70434.59;5052691;28;20194;-83
2023/06/11 10:02:38;;;;;;;6.35;4.45;;;;;;;-143.21;53.17;70420.72;5052130;28;20186;-82
2023/06/11 10:05:07;;;;;;;16.17;5.13;;;;;;;-143.21;50.07;70404.88;5051607;28;20261;-83
2023/06/11 10:07:39;;;;;;;9.95;5.85;;;;;;;-143.21;49.58;70387.03;5051982;28;20190;-82
2023/06/11 10:10:09;;;;;;;9.73;6.10;;;;;;;-143.21;43.25;70400.91;5051984;28;20558;-84
2023/06/11 10:12:36;;;;;;;7.38;5.78;;;;;;;-143.21;44.09;70385.06;5051984;28;20256;-82
2023/06/11 10:15:05;;;;;;;11.70;6.00;;;;;;;-143.21;44.88;70367.22;5052438;28;20622;-84
2023/06/11 10:17:32;;;;;;;8.80;5.82;;;;;;;-143.21;44.01;70341.44;5052167;28;20225;-82
2023/06/11 10:20:00;;;;;;;10.85;6.13;;;;;;;-143.21;41.20;70339.47;5052348;28;20194;-82
2023/06/11 10:22:35;;;;;;;13.60;6.80;;;;;;;-143.21;42.23;70363.25;5052277;28;20205;-82
2023/06/11 10:25:02;;;;;;;11.98;6.15;;;;;;;-143.21;43.59;70375.16;5052228;28;20213;-82
2023/06/11 10:27:37;;;;;;;12.40;6.03;;;;;;;-143.21;44.20;70345.41;5052039;28;20734;-83
2023/06/11 10:30:05;;;;;;;9.23;6.20;;;;;;;-143.21;44.19;70325.59;5051767;28;20232;-83
2023/06/11 10:32:32;;;;;;;16.13;6.07;;;;;;;-143.21;43.45;70305.78;5051933;28;20554;-83
2023/06/11 10:35:03;;;;;;;12.73;5.75;;;;;;;-143.21;43.96;70303.78;5052308;28;20198;-84
2023/06/11 10:37:35;;;;;;;9.52;5.85;;;;;;;-143.21;43.33;70307.75;5052066;28;20667;-84
2023/06/11 10:40:03;;;;;;;17.67;6.47;;;;;;;-143.21;42.39;70287.94;5053036;28;20630;-83
2023/06/11 10:42:35;;;;;;;7.18;5.40;;;;;;;-143.21;42.30;70254.25;5053934;28;20198;-82
2023/06/11 10:45:07;;;;;;;10.25;5.82;;;;;;;-143.21;42.91;70226.50;5053002;28;20264;-83
2023/06/11 10:47:50;;;;;;;9.50;6.07;;;;;;;-143.21;41.77;70202.72;5052159;28;20222;-82
2023/06/11 10:50:35;;;;;;;8.50;5.72;;;;;;;-143.21;41.33;70178.94;5052605;28;20186;-82
2023/06/11 10:53:12;;;;;;;7.53;5.60;;;;;;;-143.21;40.36;70174.97;5062249;28;20204;-76
2023/06/11 10:55:44;;;;;;;7.90;5.50;;;;;;;-143.21;40.17;70180.91;5070762;28;20193;-77
2023/06/11 10:58:22;;;;;;;11.88;6.45;;;;;;;-143.21;40.67;70182.91;5070141;28;20649;-75
2023/06/11 11:00:59;;;;;;;7.35;5.70;;;;;;;-143.21;40.31;70169.03;5070767;28;20225;-79
2023/06/11 11:03:30;;;;;;;10.45;5.75;;;;;;;-143.21;40.35;70135.31;5071004;28;20616;-76
2023/06/11 11:06:01;;;;;;;8.20;5.55;;;;;;;-143.21;40.44;70115.50;5070221;28;20232;-76
2023/06/11 11:08:32;;;;;;;13.10;6.30;;;;;;;-143.21;40.47;70105.59;5070655;28;20223;-77
2023/06/11 11:11:02;;;;;;;8.98;6.22;;;;;;;-143.21;41.22;70075.88;5070756;28;20580;-79
2023/06/11 11:13:30;;;;;;;10.40;5.80;;;;;;;-143.21;40.68;70060.03;5070230;28;20545;-77
2023/06/11 11:15:58;;;;;;;8.93;5.50;;;;;;;-143.21;40.46;70046.16;5070690;28;20201;-77
2023/06/11 11:18:34;;;;;;;9.70;5.90;;;;;;;-143.21;40.35;70026.31;5070270;28;20200;-76